Time;durP1;ratioP1;P1;durP2;ratioP2;P2;SDS_P1;SDS_P2;PMS_P1;PMS_P2;Temp;Humidity;BMP_temperature;BMP_pressure;BME280_temperature;BME280_humidity;BME280_pressure;Samples;Min_cycle;Max_cycle;Signal;HPM_P1;HPM_P2
2021/01/13 00:00:03;;;;;;;33.20;19.40;;;1.20;99.90;;;;;;5050699;28;20266;-73
2021/01/13 00:02:29;;;;;;;32.43;18.10;;;1.30;99.90;;;;;;5048310;28;20234;-72
2021/01/13 00:04:56;;;;;;;30.73;17.53;;;1.30;99.90;;;;;;5053365;28;20682;-73
2021/01/13 00:07:22;;;;;;;29.60;18.80;;;1.30;99.90;;;;;;5051562;28;20230;-73
2021/01/13 00:09:48;;;;;;;34.90;19.40;;;1.30;99.90;;;;;;5048259;28;20254;-73
2021/01/13 00:12:15;;;;;;;30.20;18.47;;;1.30;99.90;;;;;;5049810;28;20276;-72
2021/01/13 00:14:43;;;;;;;30.80;18.87;;;1.60;99.90;;;;;;5050380;28;20281;-74
2021/01/13 00:17:09;;;;;;;32.17;18.77;;;1.30;99.90;;;;;;5044584;28;20206;-73
2021/01/13 00:19:36;;;;;;;30.27;18.23;;;1.30;99.90;;;;;;5052276;28;20293;-72
2021/01/13 00:22:03;;;;;;;31.53;19.07;;;1.30;99.90;;;;;;5041467;28;20280;-72
2021/01/13 00:24:30;;;;;;;28.93;17.73;;;1.30;99.90;;;;;;5050766;28;20237;-75
2021/01/13 00:27:01;;;;;;;28.07;18.17;;;1.30;99.90;;;;;;5047559;28;20245;-71
2021/01/13 00:29:29;;;;;;;30.47;18.17;;;1.30;99.90;;;;;;5038549;28;20249;-74
2021/01/13 00:31:56;;;;;;;31.43;19.90;;;1.30;99.90;;;;;;5043462;28;20655;-73
2021/01/13 00:34:22;;;;;;;31.03;19.23;;;1.40;99.90;;;;;;5041442;28;20207;-72
2021/01/13 00:36:49;;;;;;;31.53;18.30;;;1.40;99.90;;;;;;5046432;28;20210;-73
2021/01/13 00:39:15;;;;;;;29.20;17.80;;;1.40;99.90;;;;;;5050746;28;20293;-72
2021/01/13 00:41:42;;;;;;;29.77;18.70;;;1.40;99.90;;;;;;5045081;28;20202;-73
2021/01/13 00:44:09;;;;;;;28.37;18.30;;;1.40;99.90;;;;;;5043014;28;20322;-72
2021/01/13 00:46:38;;;;;;;27.97;17.77;;;1.40;99.90;;;;;;5047590;28;20292;-73
2021/01/13 00:49:05;;;;;;;28.93;18.53;;;1.40;99.90;;;;;;5040414;28;20316;-73
2021/01/13 00:51:35;;;;;;;32.60;17.70;;;1.50;99.90;;;;;;5046172;28;20241;-72
2021/01/13 00:54:02;;;;;;;30.33;18.60;;;1.50;99.90;;;;;;5043225;28;20210;-72
2021/01/13 00:56:29;;;;;;;31.03;18.53;;;1.50;99.90;;;;;;5036068;28;20205;-73
2021/01/13 00:58:56;;;;;;;28.10;19.00;;;1.40;99.90;;;;;;5043031;28;20213;-72
2021/01/13 01:01:25;;;;;;;30.70;20.50;;;1.40;99.90;;;;;;5048480;28;20285;-74
2021/01/13 01:03:53;;;;;;;28.30;18.87;;;1.50;99.90;;;;;;5045397;28;20215;-72
2021/01/13 01:06:19;;;;;;;29.30;17.57;;;1.50;99.90;;;;;;5046745;28;20211;-72
2021/01/13 01:08:46;;;;;;;30.10;18.60;;;1.50;99.90;;;;;;5043081;28;20294;-72
2021/01/13 01:11:13;;;;;;;29.43;18.93;;;1.50;99.90;;;;;;5042206;28;20706;-71
2021/01/13 01:13:40;;;;;;;29.23;18.13;;;1.50;99.90;;;;;;5046321;28;20292;-74
2021/01/13 01:16:06;;;;;;;28.80;18.93;;;1.40;99.90;;;;;;5046927;28;20325;-73
2021/01/13 01:18:32;;;;;;;30.43;18.43;;;1.40;99.90;;;;;;5045556;28;20294;-72
2021/01/13 01:21:00;;;;;;;30.53;19.30;;;1.50;99.90;;;;;;5044332;28;20205;-73
2021/01/13 01:23:26;;;;;;;29.87;17.97;;;1.50;99.90;;;;;;5042174;28;20233;-73
2021/01/13 01:25:52;;;;;;;28.07;18.07;;;1.50;99.90;;;;;;5044431;28;20340;-74
2021/01/13 01:28:19;;;;;;;27.33;18.33;;;1.50;99.90;;;;;;5051903;28;20218;-73
2021/01/13 01:30:45;;;;;;;29.80;18.00;;;1.50;99.90;;;;;;5046441;28;20319;-73
2021/01/13 01:33:11;;;;;;;28.93;17.13;;;1.50;99.90;;;;;;5048079;28;20270;-73
2021/01/13 01:35:38;;;;;;;27.90;17.47;;;1.60;99.90;;;;;;5043543;28;20246;-72
2021/01/13 01:38:05;;;;;;;26.97;17.77;;;1.50;99.90;;;;;;5044233;28;20546;-74
2021/01/13 01:40:31;;;;;;;30.50;18.03;;;1.50;99.90;;;;;;5040124;28;20305;-73
2021/01/13 01:42:58;;;;;;;30.17;17.43;;;1.50;99.90;;;;;;5049810;28;20206;-72
2021/01/13 01:45:26;;;;;;;30.57;18.50;;;1.50;99.90;;;;;;5049805;28;20206;-72
2021/01/13 01:48:14;;;;;;;30.73;18.30;;;1.50;99.90;;;;;;5049423;28;20209;-73
2021/01/13 01:50:43;;;;;;;29.50;18.37;;;1.50;99.90;;;;;;5039164;28;20203;-73
2021/01/13 01:53:20;;;;;;;25.17;16.97;;;1.50;99.90;;;;;;5040695;28;20297;-73
2021/01/13 01:55:51;;;;;;;28.80;17.90;;;1.50;99.90;;;;;;5046672;28;20262;-72
2021/01/13 01:58:26;;;;;;;28.57;18.87;;;1.90;99.90;;;;;;5036969;28;20279;-71
2021/01/13 02:00:55;;;;;;;32.47;17.87;;;1.50;99.90;;;;;;5040130;28;20228;-72
2021/01/13 02:03:25;;;;;;;28.07;18.30;;;1.50;99.90;;;;;;5050300;28;20209;-72
2021/01/13 02:05:58;;;;;;;29.30;17.10;;;1.50;99.90;;;;;;5046259;28;20229;-71
2021/01/13 02:08:26;;;;;;;28.27;17.80;;;1.50;99.90;;;;;;5047326;28;20221;-72
2021/01/13 02:10:53;;;;;;;28.27;17.27;;;1.50;99.90;;;;;;5045661;28;20397;-73
2021/01/13 02:13:21;;;;;;;28.30;17.10;;;1.60;99.90;;;;;;5045444;28;20698;-72
2021/01/13 02:15:49;;;;;;;32.13;18.80;;;1.50;99.90;;;;;;5036536;28;20214;-74
2021/01/13 02:18:22;;;;;;;28.17;17.37;;;1.50;99.90;;;;;;5042380;28;20210;-72
2021/01/13 02:20:53;;;;;;;26.57;16.70;;;1.60;99.90;;;;;;5041150;28;20229;-74
2021/01/13 02:23:30;;;;;;;29.80;17.90;;;1.50;99.90;;;;;;5039610;28;20212;-73
2021/01/13 02:26:34;;;;;;;28.03;17.60;;;1.50;99.90;;;;;;5051069;28;20205;-73
2021/01/13 02:29:12;;;;;;;28.53;16.73;;;1.60;99.90;;;;;;5040616;28;20782;-73
2021/01/13 02:31:47;;;;;;;27.87;16.80;;;1.60;99.90;;;;;;5044650;28;20209;-72
2021/01/13 02:34:41;;;;;;;28.90;16.27;;;1.60;99.90;;;;;;5052159;28;20206;-72
2021/01/13 02:37:36;;;;;;;25.00;15.90;;;1.60;99.90;;;;;;5045321;28;20321;-73
2021/01/13 02:40:07;;;;;;;23.80;15.10;;;1.60;99.90;;;;;;5050909;28;20209;-73
2021/01/13 02:42:37;;;;;;;23.20;14.10;;;1.60;99.90;;;;;;5054518;28;20263;-72
2021/01/13 02:45:10;;;;;;;23.60;14.53;;;1.70;99.90;;;;;;5054011;28;20292;-72
2021/01/13 02:48:11;;;;;;;25.77;15.57;;;1.60;99.90;;;;;;5045789;28;20206;-71
2021/01/13 02:50:47;;;;;;;21.70;13.60;;;1.60;99.90;;;;;;5050048;28;20521;-72
2021/01/13 02:53:46;;;;;;;19.57;12.23;;;1.60;99.90;;;;;;5046335;28;20664;-72
2021/01/13 02:56:38;;;;;;;19.63;12.60;;;1.60;99.90;;;;;;5044505;28;20210;-71
2021/01/13 02:59:10;;;;;;;20.80;12.80;;;1.60;99.90;;;;;;5050381;28;20297;-73
2021/01/13 03:01:43;;;;;;;20.20;11.37;;;1.60;99.90;;;;;;5045713;28;20202;-71
2021/01/13 03:04:10;;;;;;;17.80;11.77;;;1.60;99.90;;;;;;5045671;28;20281;-72
2021/01/13 03:06:40;;;;;;;19.50;10.53;;;1.60;99.90;;;;;;5051693;28;20264;-72
2021/01/13 03:09:08;;;;;;;14.70;9.60;;;1.60;99.90;;;;;;5042767;28;20226;-73
2021/01/13 03:11:36;;;;;;;16.57;9.80;;;1.60;99.90;;;;;;5046798;28;20309;-72
2021/01/13 03:14:10;;;;;;;14.60;9.53;;;1.60;99.90;;;;;;5050509;28;20313;-72
2021/01/13 03:16:40;;;;;;;14.43;8.87;;;1.60;99.90;;;;;;5049391;28;20206;-73
2021/01/13 03:19:17;;;;;;;13.80;8.70;;;1.60;99.90;;;;;;5048337;28;20202;-72
2021/01/13 03:21:51;;;;;;;10.47;6.87;;;1.60;99.90;;;;;;5049282;28;20208;-73
2021/01/13 03:24:31;;;;;;;11.87;7.70;;;1.50;99.90;;;;;;5049915;28;20737;-71
2021/01/13 03:26:59;;;;;;;9.63;6.57;;;1.50;99.90;;;;;;5047318;28;20263;-71
2021/01/13 03:29:28;;;;;;;9.97;7.63;;;1.50;99.90;;;;;;5038810;28;20227;-71
2021/01/13 03:32:06;;;;;;;11.40;7.73;;;1.50;99.90;;;;;;5042739;28;21004;-71
2021/01/13 03:34:38;;;;;;;8.57;6.30;;;1.60;99.90;;;;;;5043292;28;20248;-71
2021/01/13 03:37:11;;;;;;;12.87;6.77;;;1.50;99.90;;;;;;5041754;28;20206;-71
2021/01/13 03:39:39;;;;;;;8.57;6.30;;;1.50;99.90;;;;;;5049001;28;20230;-73
2021/01/13 03:42:17;;;;;;;8.23;5.73;;;1.40;99.90;;;;;;5045459;28;20359;-73
2021/01/13 03:44:45;;;;;;;9.20;6.33;;;1.40;99.90;;;;;;5049345;28;20650;-73
2021/01/13 03:47:59;;;;;;;10.70;6.37;;;1.40;99.90;;;;;;5043967;28;20292;-73
2021/01/13 03:50:33;;;;;;;8.83;6.83;;;1.30;99.90;;;;;;5037965;28;20229;-72
2021/01/13 03:53:02;;;;;;;8.33;6.37;;;1.30;99.90;;;;;;5051966;28;20263;-73
2021/01/13 03:55:30;;;;;;;10.83;6.13;;;1.30;99.90;;;;;;5044064;28;20289;-72
2021/01/13 03:58:23;;;;;;;7.50;6.00;;;1.20;99.90;;;;;;5043016;28;20208;-73
2021/01/13 04:01:27;;;;;;;8.70;5.67;;;1.20;99.90;;;;;;5021233;28;20212;-73
2021/01/13 04:04:01;;;;;;;6.17;5.30;;;1.10;99.90;;;;;;5046169;28;20217;-73
2021/01/13 04:06:29;;;;;;;7.70;5.80;;;1.10;99.90;;;;;;5044561;28;20691;-73
2021/01/13 04:09:02;;;;;;;9.37;6.17;;;1.10;99.90;;;;;;5040980;28;20290;-72
2021/01/13 04:11:32;;;;;;;6.97;5.20;;;1.00;99.90;;;;;;5043530;28;20305;-73
2021/01/13 04:14:03;;;;;;;7.00;4.73;;;1.00;99.90;;;;;;5048511;28;20710;-72
2021/01/13 04:16:36;;;;;;;6.53;4.53;;;1.10;99.90;;;;;;5048435;28;20623;-72
2021/01/13 04:19:03;;;;;;;6.53;4.73;;;1.00;99.90;;;;;;5046438;28;20604;-73
2021/01/13 04:21:31;;;;;;;10.77;4.13;;;1.00;99.90;;;;;;5051530;28;20206;-72
2021/01/13 04:23:58;;;;;;;7.63;5.30;;;1.00;99.90;;;;;;5044219;28;20202;-73
2021/01/13 04:26:26;;;;;;;7.63;4.70;;;1.00;99.90;;;;;;5041530;28;20206;-73
2021/01/13 04:28:53;;;;;;;5.00;4.40;;;0.90;99.90;;;;;;5040125;28;20264;-71
2021/01/13 04:31:19;;;;;;;7.60;5.30;;;0.90;99.90;;;;;;5047291;28;20208;-72
2021/01/13 04:33:46;;;;;;;9.03;5.07;;;0.90;99.90;;;;;;5046000;28;20256;-74
2021/01/13 04:36:14;;;;;;;9.50;4.97;;;0.90;99.90;;;;;;5041718;28;20238;-74
2021/01/13 04:38:41;;;;;;;8.27;5.33;;;0.90;99.90;;;;;;5044661;28;20284;-73
2021/01/13 04:41:11;;;;;;;8.37;5.30;;;0.90;99.90;;;;;;5039020;28;20693;-74
2021/01/13 04:44:00;;;;;;;9.27;4.77;;;0.90;99.90;;;;;;5042465;28;20203;-72
2021/01/13 04:46:29;;;;;;;6.13;3.70;;;0.80;99.90;;;;;;5039674;28;20216;-72
2021/01/13 04:49:11;;;;;;;5.87;4.50;;;0.80;99.90;;;;;;5044490;28;20239;-72
2021/01/13 04:51:40;;;;;;;6.53;4.10;;;0.70;99.90;;;;;;5047956;28;20205;-72
2021/01/13 04:54:11;;;;;;;6.60;3.70;;;0.70;99.90;;;;;;5045742;28;20236;-72
2021/01/13 04:57:09;;;;;;;5.23;4.00;;;0.70;99.90;;;;;;5043341;28;20195;-71
2021/01/13 05:00:11;;;;;;;4.70;3.83;;;0.60;99.90;;;;;;5039456;28;20281;-72
2021/01/13 05:03:13;;;;;;;3.37;3.07;;;0.60;99.90;;;;;;5018520;28;20210;-72
2021/01/13 05:05:49;;;;;;;3.57;2.90;;;0.50;99.90;;;;;;5020087;28;20583;-72
2021/01/13 05:08:33;;;;;;;3.50;2.60;;;0.50;99.90;;;;;;5037394;28;20730;-72
2021/01/13 05:11:13;;;;;;;4.73;2.60;;;0.50;99.90;;;;;;5045419;28;20205;-73
2021/01/13 05:13:46;;;;;;;3.80;3.00;;;0.50;99.90;;;;;;5040584;28;20215;-72
2021/01/13 05:16:14;;;;;;;4.57;3.07;;;0.40;99.90;;;;;;5045357;28;20214;-73
2021/01/13 05:18:55;;;;;;;6.50;3.73;;;0.40;99.90;;;;;;5043246;28;20900;-73
2021/01/13 05:21:23;;;;;;;4.03;2.93;;;0.40;99.90;;;;;;5041102;28;20216;-72
2021/01/13 05:23:51;;;;;;;4.03;3.30;;;0.40;99.90;;;;;;5048144;28;20258;-72
2021/01/13 05:26:20;;;;;;;6.13;3.57;;;0.50;99.90;;;;;;5045029;28;20222;-72
2021/01/13 05:29:19;;;;;;;5.13;3.27;;;0.50;99.90;;;;;;5040655;28;20329;-71
2021/01/13 05:31:49;;;;;;;5.50;3.67;;;0.50;99.90;;;;;;5046495;28;20206;-71
2021/01/13 05:34:18;;;;;;;4.40;3.30;;;0.50;99.90;;;;;;5040525;28;20328;-72
2021/01/13 05:37:15;;;;;;;4.03;3.30;;;0.50;99.90;;;;;;5043237;28;20629;-72
2021/01/13 05:39:42;;;;;;;3.80;3.23;;;0.50;99.90;;;;;;5046439;28;20206;-73
2021/01/13 05:42:11;;;;;;;5.23;3.50;;;0.50;99.90;;;;;;5045431;28;20210;-72
2021/01/13 05:44:38;;;;;;;6.30;3.30;;;0.50;99.90;;;;;;5042225;28;20215;-73
2021/01/13 05:47:05;;;;;;;7.77;4.07;;;0.50;99.90;;;;;;5047581;28;20214;-72
2021/01/13 05:49:32;;;;;;;6.23;3.30;;;0.50;99.90;;;;;;5039004;28;20225;-72
2021/01/13 05:52:09;;;;;;;4.37;2.97;;;0.50;99.90;;;;;;5044100;28;20269;-72
2021/01/13 05:54:38;;;;;;;3.57;2.63;;;0.60;99.90;;;;;;5043340;28;20225;-73
2021/01/13 05:57:05;;;;;;;3.87;3.27;;;0.50;99.90;;;;;;5045634;28;20220;-72
2021/01/13 05:59:34;;;;;;;4.67;2.97;;;0.50;99.90;;;;;;5042909;28;20208;-72
2021/01/13 06:02:02;;;;;;;3.50;3.03;;;0.50;99.90;;;;;;5039892;28;20202;-71
2021/01/13 06:04:29;;;;;;;5.80;3.67;;;0.50;99.90;;;;;;5039929;28;20240;-72
2021/01/13 06:07:04;;;;;;;4.73;3.50;;;0.50;99.90;;;;;;5047703;28;20573;-72
2021/01/13 06:09:37;;;;;;;6.13;3.43;;;0.50;99.90;;;;;;5046901;28;20697;-73
2021/01/13 06:12:06;;;;;;;4.27;3.27;;;0.50;99.90;;;;;;5042264;28;20248;-72
2021/01/13 06:14:35;;;;;;;4.33;2.90;;;0.50;99.90;;;;;;5045034;28;20674;-72
2021/01/13 06:17:04;;;;;;;5.60;3.67;;;0.50;99.90;;;;;;5046242;28;20573;-72
2021/01/13 06:19:31;;;;;;;4.63;3.07;;;0.50;99.90;;;;;;5044826;28;20226;-70
2021/01/13 06:22:09;;;;;;;4.20;2.90;;;0.50;99.90;;;;;;5047689;28;20237;-71
2021/01/13 06:24:37;;;;;;;5.13;3.13;;;0.40;99.90;;;;;;5047235;28;20197;-70
2021/01/13 06:27:18;;;;;;;3.63;2.93;;;0.40;99.90;;;;;;5044139;28;20210;-71
2021/01/13 06:29:51;;;;;;;4.93;2.97;;;0.40;99.90;;;;;;5041696;28;20225;-71
2021/01/13 06:32:27;;;;;;;4.03;2.73;;;0.40;99.90;;;;;;5044723;28;20233;-71
2021/01/13 06:35:04;;;;;;;8.07;2.90;;;0.40;99.90;;;;;;5044775;28;20202;-71
2021/01/13 06:37:48;;;;;;;4.63;3.30;;;0.40;99.90;;;;;;5042874;28;20194;-71
2021/01/13 06:40:18;;;;;;;6.37;3.83;;;0.40;99.90;;;;;;5043341;28;20221;-72
2021/01/13 06:42:44;;;;;;;4.17;3.27;;;0.40;99.90;;;;;;5045444;28;20292;-70
2021/01/13 06:45:13;;;;;;;4.80;3.20;;;0.40;99.90;;;;;;5042021;28;20309;-71
2021/01/13 06:47:54;;;;;;;4.13;3.57;;;0.40;99.90;;;;;;5040496;28;20268;-72
2021/01/13 06:50:35;;;;;;;6.67;4.00;;;0.50;99.90;;;;;;5042283;28;20218;-70
2021/01/13 06:53:07;;;;;;;4.77;3.23;;;0.50;99.90;;;;;;5042907;28;20569;-73
2021/01/13 06:55:34;;;;;;;5.70;3.40;;;0.50;99.90;;;;;;5046015;28;20210;-71
2021/01/13 06:58:12;;;;;;;5.07;2.90;;;0.50;99.90;;;;;;5040167;28;20213;-72
2021/01/13 07:00:40;;;;;;;5.50;3.33;;;0.50;99.90;;;;;;5036534;28;20198;-72
2021/01/13 07:03:25;;;;;;;5.90;4.10;;;0.50;99.90;;;;;;5037911;28;20220;-73
2021/01/13 07:05:52;;;;;;;6.10;3.47;;;0.40;99.90;;;;;;5043195;28;20711;-74
2021/01/13 07:08:19;;;;;;;4.60;3.40;;;0.40;99.90;;;;;;5042262;28;21054;-75
2021/01/13 07:10:45;;;;;;;3.93;3.17;;;0.40;99.90;;;;;;5041640;28;20231;-74
2021/01/13 07:13:14;;;;;;;4.13;3.47;;;0.40;99.90;;;;;;5039748;28;20698;-73
2021/01/13 07:15:42;;;;;;;5.93;3.20;;;0.50;99.90;;;;;;5044117;28;20290;-74
2021/01/13 07:18:10;;;;;;;6.43;3.70;;;0.50;99.90;;;;;;5039945;28;20216;-74
2021/01/13 07:20:41;;;;;;;5.53;3.57;;;0.50;99.90;;;;;;5045659;28;20655;-73
2021/01/13 07:23:08;;;;;;;4.07;3.50;;;0.60;99.90;;;;;;5015779;28;20265;-73
2021/01/13 07:25:44;;;;;;;6.00;3.63;;;0.50;99.90;;;;;;5010494;28;20215;-73
2021/01/13 07:28:12;;;;;;;4.17;3.40;;;0.60;99.90;;;;;;5015269;28;20207;-73
2021/01/13 07:30:41;;;;;;;6.40;4.10;;;0.60;99.90;;;;;;5018054;28;20322;-73
2021/01/13 07:33:11;;;;;;;6.27;4.43;;;0.60;99.90;;;;;;5013656;28;20722;-73
2021/01/13 07:35:44;;;;;;;8.97;4.90;;;0.60;99.90;;;;;;5013870;28;20207;-74
2021/01/13 07:38:13;;;;;;;5.83;4.00;;;0.60;99.90;;;;;;5015915;28;20562;-75
2021/01/13 07:40:57;;;;;;;6.27;4.20;;;0.70;99.90;;;;;;5019203;28;20206;-74
2021/01/13 07:44:16;;;;;;;4.80;3.93;;;0.70;99.90;;;;;;5016496;28;20683;-76
2021/01/13 07:47:00;;;;;;;8.03;4.73;;;0.70;99.90;;;;;;5015510;28;20246;-74
2021/01/13 07:49:42;;;;;;;6.50;4.37;;;0.80;99.90;;;;;;5007700;28;20231;-73
2021/01/13 07:52:09;;;;;;;8.37;5.53;;;0.80;99.90;;;;;;5009630;28;20279;-73
2021/01/13 07:54:37;;;;;;;6.93;4.20;;;0.90;99.90;;;;;;5016286;28;20608;-73
2021/01/13 07:57:05;;;;;;;6.47;4.30;;;0.90;99.90;;;;;;5017531;28;20226;-73
2021/01/13 07:59:42;;;;;;;7.40;4.53;;;0.90;99.90;;;;;;5023665;28;20299;-72
2021/01/13 08:03:00;;;;;;;5.10;4.10;;;1.00;99.90;;;;;;5008456;28;20235;-72
2021/01/13 08:05:57;;;;;;;6.50;4.40;;;1.10;99.90;;;;;;5013484;28;20321;-70
2021/01/13 08:08:25;;;;;;;5.50;4.40;;;1.10;99.90;;;;;;5016515;28;20677;-73
2021/01/13 08:10:52;;;;;;;7.13;5.10;;;1.10;99.90;;;;;;5008738;28;20575;-74
2021/01/13 08:13:39;;;;;;;7.17;4.83;;;1.10;99.90;;;;;;5011992;28;20211;-76
2021/01/13 08:16:51;;;;;;;7.27;4.73;;;1.10;99.90;;;;;;5009277;28;20211;-73
2021/01/13 08:20:21;;;;;;;7.00;5.50;;;1.10;99.90;;;;;;4996316;28;20696;-72
2021/01/13 08:22:58;;;;;;;7.83;5.13;;;1.00;99.90;;;;;;5006971;28;20206;-76
2021/01/13 08:25:27;;;;;;;8.83;5.47;;;1.00;99.90;;;;;;5012685;28;20271;-76
2021/01/13 08:27:59;;;;;;;7.53;5.80;;;1.00;99.90;;;;;;5015278;28;20215;-75
2021/01/13 08:30:28;;;;;;;9.53;6.03;;;1.00;99.90;;;;;;5018052;28;20263;-75
2021/01/13 08:32:57;;;;;;;10.17;6.23;;;1.00;99.90;;;;;;5016057;28;20319;-74
2021/01/13 08:35:34;;;;;;;8.33;5.63;;;1.00;99.90;;;;;;5016952;28;20221;-74
2021/01/13 08:38:09;;;;;;;9.70;5.90;;;1.00;99.90;;;;;;5008093;28;20218;-73
2021/01/13 08:40:37;;;;;;;10.27;6.07;;;1.00;99.90;;;;;;5015898;28;20277;-75
2021/01/13 08:43:08;;;;;;;11.67;6.60;;;1.00;99.90;;;;;;5009176;28;20226;-74
2021/01/13 08:45:38;;;;;;;12.83;7.73;;;1.10;99.90;;;;;;5009806;28;20770;-74
2021/01/13 08:48:07;;;;;;;10.60;7.03;;;1.10;99.90;;;;;;5009151;28;20236;-73
2021/01/13 08:50:36;;;;;;;11.10;7.87;;;1.10;99.90;;;;;;5015503;28;20238;-74
2021/01/13 08:53:04;;;;;;;14.73;8.40;;;1.10;99.90;;;;;;5012646;28;20239;-74
2021/01/13 08:55:31;;;;;;;14.67;8.67;;;1.10;99.90;;;;;;5021782;28;20632;-77
2021/01/13 08:58:05;;;;;;;13.33;8.03;;;1.10;99.90;;;;;;5017467;28;20211;-73
2021/01/13 09:00:33;;;;;;;12.70;7.97;;;1.10;99.90;;;;;;5021350;28;20291;-74
2021/01/13 09:03:10;;;;;;;17.57;9.07;;;1.10;99.90;;;;;;5012623;28;20207;-71
2021/01/13 09:05:40;;;;;;;18.20;8.33;;;1.10;99.90;;;;;;5002954;28;20239;-74
2021/01/13 09:08:09;;;;;;;16.33;8.97;;;1.10;99.90;;;;;;5010221;28;20242;-73
2021/01/13 09:10:57;;;;;;;14.80;9.57;;;1.20;99.90;;;;;;5004892;28;20541;-73
2021/01/13 09:13:38;;;;;;;15.20;9.10;;;1.20;99.90;;;;;;5006389;28;20261;-74
2021/01/13 09:16:36;;;;;;;19.40;10.07;;;1.20;99.90;;;;;;5003906;28;20207;-74
2021/01/13 09:19:08;;;;;;;17.10;9.40;;;1.30;99.90;;;;;;5016257;28;20696;-74
2021/01/13 09:21:37;;;;;;;15.67;9.90;;;1.30;99.90;;;;;;5008905;28;20200;-74
2021/01/13 09:24:06;;;;;;;16.30;9.67;;;1.20;99.90;;;;;;5010291;28;20247;-74
2021/01/13 09:26:35;;;;;;;17.87;11.47;;;1.20;99.90;;;;;;5012364;28;20250;-74
2021/01/13 09:29:04;;;;;;;18.57;10.77;;;1.20;99.90;;;;;;5020553;28;20414;-74
2021/01/13 09:31:31;;;;;;;17.77;10.83;;;1.20;99.90;;;;;;5013782;28;20213;-74
2021/01/13 09:33:59;;;;;;;18.57;11.27;;;1.30;99.90;;;;;;5012160;28;20295;-75
2021/01/13 09:36:26;;;;;;;16.87;9.57;;;1.30;99.90;;;;;;5021949;28;20295;-74
2021/01/13 09:39:14;;;;;;;16.17;10.70;;;1.30;99.90;;;;;;5014537;28;20235;-73
2021/01/13 09:41:42;;;;;;;18.03;10.27;;;1.30;99.90;;;;;;5014407;28;20203;-74
2021/01/13 09:44:12;;;;;;;17.83;10.33;;;1.20;99.90;;;;;;5013291;28;20712;-75
2021/01/13 09:46:39;;;;;;;15.40;8.80;;;1.30;99.90;;;;;;5012389;28;20341;-74
2021/01/13 09:49:07;;;;;;;13.93;8.27;;;1.30;99.90;;;;;;5018472;28;20230;-72
2021/01/13 09:51:35;;;;;;;19.23;10.27;;;1.40;99.90;;;;;;5008242;28;20262;-77
2021/01/13 09:54:08;;;;;;;17.43;11.23;;;1.40;99.90;;;;;;5011295;28;20242;-75
2021/01/13 09:56:36;;;;;;;14.63;8.70;;;1.50;99.90;;;;;;5010371;28;20211;-75
2021/01/13 09:59:05;;;;;;;13.43;8.00;;;1.50;99.90;;;;;;5013878;28;20249;-74
2021/01/13 10:01:33;;;;;;;12.83;7.87;;;1.50;99.90;;;;;;5018201;28;20298;-75
2021/01/13 10:04:01;;;;;;;13.30;8.67;;;1.50;99.90;;;;;;5011042;28;20670;-73
2021/01/13 10:06:28;;;;;;;14.77;7.87;;;1.50;99.90;;;;;;5011964;28;20243;-76
2021/01/13 10:08:57;;;;;;;13.53;7.13;;;1.50;99.90;;;;;;5006327;28;20288;-76
2021/01/13 10:11:26;;;;;;;10.33;7.27;;;1.50;99.90;;;;;;5009965;28;20231;-74
2021/01/13 10:13:59;;;;;;;13.60;7.40;;;1.50;99.90;;;;;;5005659;28;20211;-76
2021/01/13 10:16:26;;;;;;;10.13;7.13;;;1.50;99.90;;;;;;5014007;28;20297;-74
2021/01/13 10:18:54;;;;;;;11.70;7.77;;;1.60;99.90;;;;;;5009958;28;20214;-75
2021/01/13 10:21:22;;;;;;;12.90;7.70;;;1.60;99.90;;;;;;5015185;28;20239;-77
2021/01/13 10:23:49;;;;;;;11.50;7.67;;;1.60;99.90;;;;;;5014718;28;20207;-76
2021/01/13 10:26:16;;;;;;;13.10;8.13;;;1.60;99.90;;;;;;4998058;28;20311;-77
2021/01/13 10:28:45;;;;;;;13.13;7.83;;;1.60;99.90;;;;;;5007865;28;20334;-75
2021/01/13 10:31:25;;;;;;;12.17;7.43;;;1.60;99.90;;;;;;5010505;28;20645;-74
2021/01/13 10:33:56;;;;;;;12.57;7.77;;;1.60;99.90;;;;;;5003571;28;20537;-73
2021/01/13 10:36:42;;;;;;;13.80;7.43;;;1.60;99.90;;;;;;5013273;28;20238;-74
2021/01/13 10:39:14;;;;;;;12.33;7.50;;;1.60;99.90;;;;;;5013697;28;20227;-73
2021/01/13 10:41:42;;;;;;;12.13;7.13;;;1.60;99.90;;;;;;5003494;28;20230;-75
2021/01/13 10:44:13;;;;;;;11.80;7.17;;;1.60;99.90;;;;;;5008976;28;20618;-76
2021/01/13 10:46:56;;;;;;;12.90;8.10;;;1.60;99.90;;;;;;5006965;28;20311;-74
2021/01/13 10:49:34;;;;;;;11.43;6.87;;;1.70;99.90;;;;;;5004946;28;20261;-74
2021/01/13 10:52:03;;;;;;;9.60;6.10;;;1.70;99.90;;;;;;5009578;28;20582;-74
2021/01/13 10:54:31;;;;;;;11.57;7.47;;;1.70;99.90;;;;;;5003995;28;20231;-73
2021/01/13 10:57:04;;;;;;;10.83;6.73;;;1.70;99.90;;;;;;5008989;28;20203;-75
2021/01/13 10:59:33;;;;;;;9.67;6.50;;;1.80;99.90;;;;;;5011337;28;20294;-74
2021/01/13 11:02:01;;;;;;;11.03;6.70;;;1.80;99.90;;;;;;5021046;28;20219;-74
2021/01/13 11:04:34;;;;;;;13.33;7.20;;;1.80;99.90;;;;;;5007405;28;20242;-72
2021/01/13 11:07:02;;;;;;;9.60;6.40;;;1.90;99.90;;;;;;5004256;28;20314;-74
2021/01/13 11:09:29;;;;;;;10.03;6.40;;;1.90;99.90;;;;;;5004358;28;20228;-71
2021/01/13 11:11:57;;;;;;;12.03;6.63;;;2.00;99.90;;;;;;5006743;28;20763;-72
2021/01/13 11:14:36;;;;;;;12.07;6.77;;;1.90;99.90;;;;;;5011213;28;20584;-73
2021/01/13 11:17:05;;;;;;;12.20;6.33;;;1.90;99.90;;;;;;5017863;28;20207;-70
2021/01/13 11:19:33;;;;;;;11.63;6.63;;;1.90;99.90;;;;;;5006742;28;20208;-74
2021/01/13 11:22:00;;;;;;;10.00;6.47;;;1.80;99.90;;;;;;5009180;28;20235;-75
2021/01/13 11:24:32;;;;;;;11.10;6.80;;;1.80;99.90;;;;;;5008622;28;20241;-74
2021/01/13 11:27:01;;;;;;;14.43;7.70;;;1.80;99.90;;;;;;5009197;28;20199;-74
2021/01/13 11:29:30;;;;;;;12.33;7.60;;;1.80;99.90;;;;;;5023670;28;20251;-76
2021/01/13 11:31:58;;;;;;;12.57;6.73;;;1.90;99.90;;;;;;5008114;28;20225;-75
2021/01/13 11:34:26;;;;;;;9.40;6.13;;;1.90;99.90;;;;;;5006466;28;20299;-76
2021/01/13 11:37:17;;;;;;;11.60;6.10;;;1.90;99.90;;;;;;5006898;28;20672;-77
2021/01/13 11:39:46;;;;;;;14.17;6.90;;;1.90;99.90;;;;;;5017486;28;20290;-75
2021/01/13 11:42:21;;;;;;;12.63;6.10;;;1.90;99.90;;;;;;5013372;28;20212;-76
2021/01/13 11:45:04;;;;;;;11.10;6.83;;;1.90;99.90;;;;;;5015367;28;20303;-76
2021/01/13 11:47:33;;;;;;;12.57;7.03;;;1.80;99.90;;;;;;5013462;28;20219;-76
2021/01/13 11:50:11;;;;;;;10.93;7.07;;;1.90;99.90;;;;;;5002085;28;20232;-75
2021/01/13 11:52:41;;;;;;;13.40;6.97;;;1.80;99.90;;;;;;5012705;28;20611;-76
2021/01/13 11:55:09;;;;;;;11.77;6.17;;;1.90;99.90;;;;;;5013226;28;20214;-75
2021/01/13 11:57:36;;;;;;;12.00;6.90;;;1.90;99.90;;;;;;5017443;28;20250;-76
2021/01/13 12:00:17;;;;;;;10.47;5.87;;;1.90;99.90;;;;;;5001671;28;20212;-76
2021/01/13 12:02:51;;;;;;;11.07;6.47;;;1.90;99.90;;;;;;5010869;28;20671;-76
2021/01/13 12:05:29;;;;;;;11.47;6.30;;;1.90;99.90;;;;;;5000160;28;20692;-77
2021/01/13 12:07:58;;;;;;;14.00;6.57;;;1.80;99.90;;;;;;5008511;28;20219;-74
2021/01/13 12:10:31;;;;;;;11.23;6.50;;;1.80;99.90;;;;;;5012060;28;20313;-73
2021/01/13 12:13:19;;;;;;;12.13;6.60;;;1.80;99.90;;;;;;5009141;28;20227;-75
2021/01/13 12:15:57;;;;;;;15.43;7.23;;;1.80;99.90;;;;;;4999154;28;20223;-75
2021/01/13 12:18:26;;;;;;;12.47;6.90;;;1.90;99.90;;;;;;5010425;28;20203;-73
2021/01/13 12:20:55;;;;;;;15.97;8.17;;;1.90;99.90;;;;;;5010913;28;20208;-74
2021/01/13 12:23:29;;;;;;;17.47;9.10;;;2.00;99.90;;;;;;5003523;28;20229;-75
2021/01/13 12:26:18;;;;;;;13.40;8.00;;;2.10;99.90;;;;;;5011073;28;20310;-76
2021/01/13 12:28:46;;;;;;;13.83;7.80;;;2.30;99.90;;;;;;5005387;28;20222;-76
2021/01/13 12:31:13;;;;;;;14.43;7.77;;;2.30;99.90;;;;;;5012523;28;20574;-74
2021/01/13 12:33:50;;;;;;;11.20;6.90;;;2.60;99.90;;;;;;5007298;28;20290;-74
2021/01/13 12:36:19;;;;;;;15.73;7.97;;;2.90;99.90;;;;;;5001080;28;20715;-76
2021/01/13 12:38:46;;;;;;;16.43;8.43;;;3.20;99.90;;;;;;5002906;28;20207;-75
2021/01/13 12:41:20;;;;;;;15.30;7.90;;;3.50;99.90;;;;;;5012009;28;20247;-76
2021/01/13 12:43:47;;;;;;;13.00;8.07;;;3.80;99.90;;;;;;5011528;28;20305;-77
2021/01/13 12:46:23;;;;;;;12.30;7.33;;;3.80;99.90;;;;;;5014889;28;20291;-76
2021/01/13 12:48:50;;;;;;;12.63;6.60;;;3.90;99.90;;;;;;5014461;28;20210;-75
2021/01/13 12:51:16;;;;;;;12.97;7.07;;;3.70;99.90;;;;;;5018043;28;20290;-75
2021/01/13 12:53:43;;;;;;;13.43;7.23;;;3.60;99.90;;;;;;5015491;28;20339;-75
2021/01/13 12:56:20;;;;;;;15.00;8.00;;;3.40;99.90;;;;;;5014214;28;20217;-75
2021/01/13 12:58:46;;;;;;;14.83;7.03;;;3.30;99.90;;;;;;5011040;28;20641;-72
2021/01/13 13:01:13;;;;;;;12.00;7.50;;;3.20;99.90;;;;;;5004242;28;20213;-74
2021/01/13 13:03:39;;;;;;;14.83;9.30;;;3.00;99.90;;;;;;5010937;28;20199;-74
2021/01/13 13:06:07;;;;;;;14.17;7.63;;;2.90;99.90;;;;;;5004352;28;20320;-76
2021/01/13 13:08:34;;;;;;;14.10;8.60;;;2.80;99.90;;;;;;5012008;28;20278;-74
2021/01/13 13:11:01;;;;;;;14.57;8.43;;;2.70;99.90;;;;;;5012253;28;20273;-76
2021/01/13 13:13:27;;;;;;;13.13;7.97;;;2.60;99.90;;;;;;5012064;28;20231;-76
2021/01/13 13:15:53;;;;;;;12.50;8.17;;;2.50;99.90;;;;;;5013720;28;20208;-71